Wagner, South Dakota
Current Conditions -  °F | °C
As of 5:55 AM on Monday 22 Dec 2014 (Local Time) from KONL Reporting Station
Haze Haze  
Wind Chill: 30°   Ceiling: 600
Heat Index: 38°   Visibility: 2mi
Dew Point: 38°   Wind: 15mph
Humidity: 100%   Direction: 300°WNW
Pressure: 29.47"   Gusts: 22mph
Location:  43.08°N, 98.29°W
Report Text: KONL 221155Z AUTO 30013G19KT 2SM BR BKN006 OVC010 04/04 A2947 RMK AO2 70004 T00350035 10037 20026
Loading
Personal Weather Stations






























Interactive Weather Map New forecast layout! Learn more

10-Day Weather Forecast

Advertisements
Track Severe Weather on mobile